createdAt,value
2022-08-20T00:01:02.598Z,16.31
2022-08-20T00:03:34.872Z,16.25
2022-08-20T00:06:09.066Z,16.23
2022-08-20T00:08:35.623Z,16.16
2022-08-20T00:11:02.790Z,16.15
2022-08-20T00:13:42.657Z,16.17
2022-08-20T00:16:10.633Z,16.15
2022-08-20T00:18:37.383Z,16.21
2022-08-20T00:21:08.303Z,16.23
2022-08-20T00:23:39.188Z,16.27
2022-08-20T00:26:06.457Z,16.26
2022-08-20T00:28:33.826Z,16.23
2022-08-20T00:31:00.274Z,16.12
2022-08-20T00:33:26.635Z,16.08
2022-08-20T00:35:56.970Z,16.03
2022-08-20T00:38:24.896Z,16.00
2022-08-20T00:40:54.739Z,16.02
2022-08-20T00:43:35.760Z,15.94
2022-08-20T00:46:09.987Z,15.93
2022-08-20T00:48:39.677Z,15.89
2022-08-20T00:51:15.240Z,15.90
2022-08-20T00:53:42.002Z,15.88
2022-08-20T00:56:10.283Z,15.82
2022-08-20T00:58:38.883Z,15.71
2022-08-20T01:01:07.330Z,15.65
2022-08-20T01:03:33.961Z,15.63
2022-08-20T01:06:00.983Z,15.63
2022-08-20T01:08:27.734Z,15.63
2022-08-20T01:11:10.548Z,15.61
2022-08-20T01:13:38.730Z,15.58
2022-08-20T01:16:14.932Z,15.60
2022-08-20T01:18:46.306Z,15.57
2022-08-20T01:21:13.185Z,15.54
2022-08-20T01:24:02.288Z,15.58
2022-08-20T01:26:37.440Z,15.53
2022-08-20T01:29:08.069Z,15.48
2022-08-20T01:31:37.306Z,15.52
2022-08-20T01:34:08.927Z,15.46
2022-08-20T01:36:57.302Z,15.47
2022-08-20T01:39:32.658Z,15.42
2022-08-20T01:42:23.369Z,15.30
2022-08-20T01:44:50.443Z,15.35
2022-08-20T01:47:27.511Z,15.43
2022-08-20T01:50:00.238Z,15.60
2022-08-20T01:53:01.379Z,15.74
2022-08-20T01:55:28.273Z,15.76
2022-08-20T01:57:55.662Z,15.79
2022-08-20T02:00:23.659Z,15.86
2022-08-20T02:02:50.820Z,15.89
2022-08-20T02:05:19.136Z,15.91
2022-08-20T02:07:45.922Z,15.87
2022-08-20T02:10:17.620Z,15.87
2022-08-20T02:12:44.737Z,15.86
2022-08-20T02:15:12.367Z,15.86
2022-08-20T02:17:40.179Z,15.89
2022-08-20T02:20:17.796Z,15.84
2022-08-20T02:22:55.035Z,15.76
2022-08-20T02:25:32.982Z,15.77
2022-08-20T02:28:02.441Z,15.77
2022-08-20T02:30:35.400Z,15.72
2022-08-20T02:33:04.308Z,15.69
2022-08-20T02:35:33.119Z,15.70
2022-08-20T02:38:00.899Z,15.57
2022-08-20T02:40:31.172Z,15.51
2022-08-20T02:42:59.363Z,15.47
2022-08-20T02:45:26.350Z,15.44
2022-08-20T02:47:55.892Z,15.37
2022-08-20T02:50:23.790Z,15.36
2022-08-20T02:52:51.776Z,15.37
2022-08-20T02:55:27.469Z,15.41
2022-08-20T02:57:59.930Z,15.45
2022-08-20T03:00:29.650Z,15.47
2022-08-20T03:03:01.732Z,15.47
2022-08-20T03:05:28.417Z,15.48
2022-08-20T03:07:56.962Z,15.55
2022-08-20T03:10:26.419Z,15.59
2022-08-20T03:12:52.832Z,15.60
2022-08-20T03:15:20.628Z,15.60
2022-08-20T03:17:47.294Z,15.55
2022-08-20T03:20:14.947Z,15.51
2022-08-20T03:22:41.680Z,15.54
2022-08-20T03:25:08.619Z,15.50
2022-08-20T03:27:36.161Z,15.40
2022-08-20T03:30:06.516Z,15.38
2022-08-20T03:32:33.428Z,15.43
2022-08-20T03:34:59.942Z,15.41
2022-08-20T03:37:30.339Z,15.40
2022-08-20T03:39:57.364Z,15.34
2022-08-20T03:42:23.747Z,15.33
2022-08-20T03:44:58.485Z,15.31
2022-08-20T03:47:26.066Z,15.26
2022-08-20T03:49:52.457Z,15.24
2022-08-20T03:52:19.377Z,15.21
2022-08-20T03:54:46.292Z,15.12
2022-08-20T03:57:14.607Z,15.10
2022-08-20T03:59:43.191Z,14.99
2022-08-20T04:02:10.929Z,14.91
2022-08-20T04:04:39.400Z,14.93
2022-08-20T04:07:10.967Z,14.84
2022-08-20T04:09:40.147Z,14.85
2022-08-20T04:12:07.530Z,14.82
2022-08-20T04:14:36.573Z,14.72
2022-08-20T04:17:07.238Z,14.66
2022-08-20T04:19:34.559Z,14.69
2022-08-20T04:22:02.332Z,14.67
2022-08-20T04:24:32.415Z,14.67
2022-08-20T04:27:03.073Z,14.67
2022-08-20T04:29:32.171Z,14.64
2022-08-20T04:32:00.721Z,14.63
2022-08-20T04:34:30.152Z,14.64
2022-08-20T04:36:56.659Z,14.63
2022-08-20T04:39:24.007Z,14.61
2022-08-20T04:41:50.369Z,14.58
2022-08-20T04:44:16.735Z,14.58
2022-08-20T04:46:43.963Z,14.54
2022-08-20T04:49:10.552Z,14.53
2022-08-20T04:51:37.130Z,14.56
2022-08-20T04:54:04.682Z,14.55
2022-08-20T04:56:39.551Z,14.61
2022-08-20T04:59:07.758Z,14.58
2022-08-20T05:01:34.827Z,14.64
2022-08-20T05:04:01.306Z,14.63
2022-08-20T05:06:31.484Z,14.69
2022-08-20T05:08:59.883Z,14.84
2022-08-20T05:11:35.457Z,14.85
2022-08-20T05:14:09.516Z,14.93
2022-08-20T05:16:40.350Z,15.00
2022-08-20T05:19:10.114Z,15.08
2022-08-20T05:21:37.331Z,15.11
2022-08-20T05:24:04.573Z,15.15
2022-08-20T05:26:31.455Z,15.20
2022-08-20T05:28:59.382Z,15.23
2022-08-20T05:31:32.000Z,15.31
2022-08-20T05:34:11.008Z,15.42
2022-08-20T05:36:48.252Z,15.57
2022-08-20T05:39:18.591Z,15.55
2022-08-20T05:41:44.984Z,15.77
2022-08-20T05:44:13.953Z,15.89
2022-08-20T05:46:43.715Z,16.21
2022-08-20T05:49:13.610Z,16.26
2022-08-20T05:51:40.028Z,16.24
2022-08-20T05:54:07.633Z,16.33
2022-08-20T05:56:34.854Z,16.48
2022-08-20T05:59:03.978Z,16.61
2022-08-20T06:01:32.877Z,16.77
2022-08-20T06:04:18.286Z,16.84
2022-08-20T06:06:47.200Z,16.98
2022-08-20T06:09:30.819Z,16.92
2022-08-20T06:12:02.923Z,16.86
2022-08-20T06:14:29.655Z,16.78
2022-08-20T06:17:13.484Z,16.95
2022-08-20T06:19:44.338Z,17.21
2022-08-20T06:22:19.744Z,17.43
2022-08-20T06:24:52.280Z,17.53
2022-08-20T06:27:19.516Z,17.76
2022-08-20T06:29:46.301Z,17.71
2022-08-20T06:32:13.230Z,17.80
2022-08-20T06:34:50.667Z,17.95
2022-08-20T06:37:19.176Z,18.18
2022-08-20T06:39:46.001Z,18.11
2022-08-20T06:42:13.217Z,18.38
2022-08-20T06:44:42.006Z,18.42
2022-08-20T06:47:09.406Z,18.68
2022-08-20T06:49:36.784Z,18.67
2022-08-20T06:52:06.580Z,18.62
2022-08-20T06:54:34.254Z,18.58
2022-08-20T06:57:02.840Z,18.60
2022-08-20T06:59:29.883Z,18.80
2022-08-20T07:01:56.485Z,18.92
2022-08-20T07:04:24.755Z,18.79
2022-08-20T07:06:55.037Z,19.09
2022-08-20T07:09:21.787Z,19.17
2022-08-20T07:11:49.532Z,19.00
2022-08-20T07:14:17.592Z,19.02
2022-08-20T07:16:44.516Z,18.89
2022-08-20T07:19:11.344Z,18.93
2022-08-20T07:21:37.776Z,18.99
2022-08-20T07:24:04.483Z,19.13
2022-08-20T07:26:31.442Z,18.85
2022-08-20T07:28:58.024Z,18.92
2022-08-20T07:31:43.639Z,18.94
2022-08-20T07:34:14.719Z,19.10
2022-08-20T07:36:41.206Z,19.06
2022-08-20T07:39:08.179Z,19.08
2022-08-20T07:41:35.930Z,18.83
2022-08-20T07:44:02.696Z,19.36
2022-08-20T07:46:31.913Z,19.67
2022-08-20T07:48:58.973Z,19.87
2022-08-20T07:51:25.578Z,20.01
2022-08-20T07:53:52.868Z,20.07
2022-08-20T07:56:24.184Z,20.07
2022-08-20T07:58:55.757Z,20.40
2022-08-20T08:01:25.996Z,20.72
2022-08-20T08:03:53.387Z,20.70
2022-08-20T08:06:29.047Z,20.60
2022-08-20T08:09:08.314Z,20.31
2022-08-20T08:11:38.232Z,20.52
2022-08-20T08:14:06.742Z,20.23
2022-08-20T08:16:35.526Z,20.39
2022-08-20T08:19:06.473Z,20.48
2022-08-20T08:21:32.986Z,20.55
2022-08-20T08:23:59.771Z,20.49
2022-08-20T08:26:28.613Z,20.31
2022-08-20T08:28:55.012Z,20.33
2022-08-20T08:31:23.070Z,20.37
2022-08-20T08:33:49.478Z,20.28
2022-08-20T08:36:16.712Z,20.27
2022-08-20T08:38:45.801Z,20.71
2022-08-20T08:41:16.451Z,20.86
2022-08-20T08:43:47.134Z,20.98
2022-08-20T08:46:17.977Z,21.05
2022-08-20T08:48:48.095Z,21.22
2022-08-20T08:51:20.283Z,21.38
2022-08-20T08:53:55.248Z,21.39
2022-08-20T08:56:24.991Z,21.59
2022-08-20T08:58:51.371Z,21.63
2022-08-20T09:01:54.504Z,21.76
2022-08-20T09:04:07.995Z,22.21
2022-08-20T09:06:35.227Z,22.02
2022-08-20T09:09:06.576Z,21.89
2022-08-20T09:11:46.150Z,22.19
2022-08-20T09:14:13.139Z,22.01
2022-08-20T09:16:52.774Z,22.28
2022-08-20T09:19:20.499Z,22.65
2022-08-20T09:21:47.124Z,22.55
2022-08-20T09:24:13.928Z,22.56
2022-08-20T09:26:40.299Z,21.85
2022-08-20T09:29:06.664Z,21.92
2022-08-20T09:31:33.693Z,22.02
2022-08-20T09:34:00.098Z,21.85
2022-08-20T09:36:32.110Z,22.01
2022-08-20T09:39:00.070Z,21.85
2022-08-20T09:41:26.461Z,21.83
2022-08-20T09:43:53.307Z,22.15
2022-08-20T09:46:19.928Z,22.37
2022-08-20T09:48:54.399Z,22.18
2022-08-20T09:51:20.964Z,22.56
2022-08-20T09:53:48.774Z,23.17
2022-08-20T09:56:15.615Z,23.14
2022-08-20T09:59:02.765Z,23.63
2022-08-20T10:01:30.207Z,24.55
2022-08-20T10:03:56.587Z,25.57
2022-08-20T10:06:23.064Z,26.03
2022-08-20T10:08:50.468Z,25.76
2022-08-20T10:11:18.100Z,25.41
2022-08-20T10:13:44.831Z,25.53
2022-08-20T10:16:11.692Z,26.55
2022-08-20T10:18:38.071Z,26.32
2022-08-20T10:21:09.832Z,25.90
2022-08-20T10:23:36.567Z,27.14
2022-08-20T10:26:02.970Z,25.00
2022-08-20T10:28:29.307Z,26.29
2022-08-20T10:30:55.997Z,27.10
2022-08-20T10:33:22.377Z,26.94
2022-08-20T10:35:48.740Z,27.16
2022-08-20T10:38:16.078Z,26.82
2022-08-20T10:40:42.432Z,26.24
2022-08-20T10:43:18.978Z,26.84
2022-08-20T10:45:45.328Z,27.32
2022-08-20T10:48:11.703Z,26.29
2022-08-20T10:50:38.440Z,27.16
2022-08-20T10:53:04.858Z,27.45
2022-08-20T10:55:31.237Z,27.89
2022-08-20T10:57:58.340Z,28.29
2022-08-20T11:00:25.515Z,28.75
2022-08-20T11:02:51.883Z,28.62
2022-08-20T11:05:18.465Z,27.75
2022-08-20T11:08:08.471Z,28.02
2022-08-20T11:10:34.378Z,26.81
2022-08-20T11:13:06.144Z,27.71
2022-08-20T11:15:35.339Z,28.27
2022-08-20T11:18:02.306Z,27.56
2022-08-20T11:20:29.172Z,27.62
2022-08-20T11:22:56.175Z,27.32
2022-08-20T11:25:23.888Z,27.16
2022-08-20T11:27:51.916Z,26.36
2022-08-20T11:30:23.627Z,27.19
2022-08-20T11:32:50.200Z,26.67
2022-08-20T11:38:04.571Z,27.25
2022-08-20T11:40:31.751Z,27.67
2022-08-20T11:43:15.483Z,27.63
2022-08-20T11:45:46.346Z,27.36
2022-08-20T11:48:12.768Z,26.98
2022-08-20T11:50:39.209Z,26.79
2022-08-20T11:53:05.578Z,27.35
2022-08-20T11:55:34.325Z,26.90
2022-08-20T11:58:01.519Z,26.85
2022-08-20T12:00:33.504Z,26.84
2022-08-20T12:03:06.622Z,26.58
2022-08-20T12:05:36.343Z,27.67
2022-08-20T12:08:04.247Z,28.65
2022-08-20T12:10:31.699Z,28.92
2022-08-20T12:12:58.892Z,29.37
2022-08-20T12:15:26.640Z,29.44
2022-08-20T12:17:54.064Z,29.26
2022-08-20T12:20:21.050Z,29.02
2022-08-20T12:22:47.435Z,29.65
2022-08-20T12:25:14.947Z,30.41
2022-08-20T12:27:42.342Z,29.34
2022-08-20T12:30:12.446Z,30.12
2022-08-20T12:32:40.395Z,29.37
2022-08-20T12:35:08.771Z,29.12
2022-08-20T12:37:36.119Z,25.93
2022-08-20T12:40:06.725Z,24.44
2022-08-20T12:42:33.747Z,23.15
2022-08-20T12:45:00.772Z,22.45
2022-08-20T12:47:32.779Z,21.80
2022-08-20T12:50:06.082Z,22.09
2022-08-20T12:52:33.324Z,21.64
2022-08-20T12:55:01.179Z,21.51
2022-08-20T12:57:33.991Z,21.38
2022-08-20T13:00:10.411Z,21.62
2022-08-20T13:02:39.011Z,21.76
2022-08-20T13:05:06.229Z,21.63
2022-08-20T13:07:33.961Z,22.03
2022-08-20T13:10:00.798Z,21.82
2022-08-20T13:12:27.992Z,21.90
2022-08-20T13:14:54.370Z,22.43
2022-08-20T13:17:38.388Z,22.29
2022-08-20T13:20:11.672Z,22.09
2022-08-20T13:22:38.534Z,22.42
2022-08-20T13:25:06.288Z,22.17
2022-08-20T13:27:32.800Z,22.04
2022-08-20T13:29:59.612Z,21.94
2022-08-20T13:32:26.335Z,22.05
2022-08-20T13:34:53.581Z,22.08
2022-08-20T13:37:25.646Z,22.32
2022-08-20T13:39:53.702Z,21.94
2022-08-20T13:42:20.514Z,22.07
2022-08-20T13:44:48.090Z,21.92
2022-08-20T13:47:37.254Z,21.96
2022-08-20T13:50:15.261Z,21.85
2022-08-20T13:52:42.754Z,22.04
2022-08-20T13:55:16.908Z,21.95
2022-08-20T13:57:44.419Z,21.99
2022-08-20T14:00:31.214Z,21.79
2022-08-20T14:03:04.644Z,21.82
2022-08-20T14:05:33.111Z,21.86
2022-08-20T14:08:25.979Z,21.66
2022-08-20T14:10:52.779Z,21.50
2022-08-20T14:13:21.873Z,21.62
2022-08-20T14:15:48.442Z,21.20
2022-08-20T14:18:15.354Z,21.12
2022-08-20T14:20:42.641Z,20.94
2022-08-20T14:23:11.792Z,21.00
2022-08-20T14:25:40.291Z,20.86
2022-08-20T14:28:13.589Z,20.63
2022-08-20T14:30:55.977Z,20.60
2022-08-20T14:33:24.131Z,20.45
2022-08-20T14:35:51.555Z,20.30
2022-08-20T14:38:18.650Z,20.35
2022-08-20T14:40:50.852Z,20.05
2022-08-20T14:43:17.575Z,20.02
2022-08-20T14:45:44.692Z,19.96
2022-08-20T14:48:11.110Z,19.93
2022-08-20T14:50:38.080Z,20.04
2022-08-20T14:53:05.556Z,20.11
2022-08-20T14:55:37.178Z,20.11
2022-08-20T14:58:11.820Z,20.12
2022-08-20T15:00:38.607Z,19.93
2022-08-20T15:03:04.987Z,20.18
2022-08-20T15:05:31.939Z,20.35
2022-08-20T15:07:59.332Z,20.20
2022-08-20T15:10:30.331Z,20.29
2022-08-20T15:12:57.954Z,20.37
2022-08-20T15:15:25.022Z,20.49
2022-08-20T15:17:57.565Z,20.50
2022-08-20T15:20:28.237Z,20.54
2022-08-20T15:22:55.087Z,20.50
2022-08-20T15:25:24.522Z,20.89
2022-08-20T15:27:51.936Z,21.15
2022-08-20T15:30:20.982Z,21.29
2022-08-20T15:32:52.717Z,21.43
2022-08-20T15:35:24.600Z,21.52
2022-08-20T15:37:54.715Z,21.58
2022-08-20T15:40:27.225Z,21.77
2022-08-20T15:42:55.339Z,21.35
2022-08-20T15:45:22.327Z,21.29
2022-08-20T15:48:02.844Z,21.11
2022-08-20T15:50:35.299Z,21.42
2022-08-20T15:53:11.087Z,21.54
2022-08-20T15:55:43.305Z,21.46
2022-08-20T15:58:24.383Z,21.85
2022-08-20T16:01:25.403Z,21.76
2022-08-20T16:04:20.848Z,21.18
2022-08-20T16:06:51.370Z,20.43
2022-08-20T16:09:39.434Z,20.57
2022-08-20T16:12:12.740Z,20.83
2022-08-20T16:14:42.686Z,21.03
2022-08-20T16:17:15.383Z,20.45
2022-08-20T16:19:55.310Z,21.23
2022-08-20T16:22:23.327Z,20.79
2022-08-20T16:24:50.114Z,20.38
2022-08-20T16:27:36.989Z,20.16
2022-08-20T16:30:10.930Z,20.35
2022-08-20T16:32:47.504Z,20.16
2022-08-20T16:35:31.728Z,20.09
2022-08-20T16:38:21.321Z,20.42
2022-08-20T16:41:11.747Z,20.52
2022-08-20T16:43:48.639Z,20.47
2022-08-20T16:46:21.446Z,20.61
2022-08-20T16:48:58.510Z,20.33
2022-08-20T16:51:46.158Z,20.35
2022-08-20T16:54:17.184Z,20.62
2022-08-20T16:56:48.852Z,20.14
2022-08-20T16:59:26.957Z,19.98
2022-08-20T17:02:10.567Z,20.04
2022-08-20T17:04:59.232Z,19.98
2022-08-20T17:07:51.476Z,19.93
2022-08-20T17:10:27.533Z,19.95
2022-08-20T17:13:00.611Z,19.88
2022-08-20T17:15:31.528Z,19.71
2022-08-20T17:18:15.802Z,19.92
2022-08-20T17:20:45.223Z,20.32
2022-08-20T17:23:17.851Z,20.70
2022-08-20T17:25:54.734Z,20.33
2022-08-20T17:28:23.181Z,20.32
2022-08-20T17:30:50.044Z,20.19
2022-08-20T17:33:19.938Z,20.30
2022-08-20T17:35:54.392Z,20.20
2022-08-20T17:38:33.944Z,20.39
2022-08-20T17:41:07.856Z,20.51
2022-08-20T17:43:35.426Z,20.55
2022-08-20T17:46:16.157Z,19.96
2022-08-20T17:48:46.983Z,19.98
2022-08-20T17:51:29.031Z,19.94
2022-08-20T17:54:06.656Z,19.78
2022-08-20T17:56:37.131Z,19.59
2022-08-20T17:59:11.194Z,19.42
2022-08-20T18:01:38.019Z,19.35
2022-08-20T18:04:04.531Z,19.19
2022-08-20T18:06:57.291Z,19.16
2022-08-20T18:09:36.445Z,19.10
2022-08-20T18:12:06.524Z,18.90
2022-08-20T18:14:47.414Z,18.89
2022-08-20T18:17:46.901Z,18.85
2022-08-20T18:20:37.286Z,18.88
2022-08-20T18:23:11.650Z,18.74
2022-08-20T18:25:50.087Z,18.82
2022-08-20T18:28:28.619Z,18.75
2022-08-20T18:30:59.144Z,18.72
2022-08-20T18:33:27.041Z,18.72
2022-08-20T18:36:22.759Z,18.68
2022-08-20T18:38:57.244Z,18.70
2022-08-20T18:41:43.900Z,18.38
2022-08-20T18:44:27.088Z,18.24
2022-08-20T18:47:01.019Z,18.08
2022-08-20T18:49:45.647Z,17.87
2022-08-20T18:52:34.472Z,17.93
2022-08-20T18:55:12.259Z,18.03
2022-08-20T18:57:53.091Z,18.01
2022-08-20T19:00:21.882Z,17.91
2022-08-20T19:03:12.886Z,17.89
2022-08-20T19:05:45.398Z,17.88
2022-08-20T19:08:29.738Z,17.69
2022-08-20T19:11:19.970Z,17.63
2022-08-20T19:13:56.297Z,17.53
2022-08-20T19:16:36.147Z,17.54
2022-08-20T19:19:03.718Z,17.45
2022-08-20T19:21:35.539Z,17.33
2022-08-20T19:24:06.847Z,17.22
2022-08-20T19:26:41.196Z,17.09
2022-08-20T19:29:11.894Z,17.02
2022-08-20T19:31:38.786Z,16.96
2022-08-20T19:34:21.916Z,16.86
2022-08-20T19:36:57.238Z,16.64
2022-08-20T19:39:25.802Z,16.52
2022-08-20T19:42:13.111Z,16.49
2022-08-20T19:44:57.563Z,16.55
2022-08-20T19:47:34.189Z,16.57
2022-08-20T19:50:17.678Z,16.46
2022-08-20T19:52:53.262Z,16.40
2022-08-20T19:55:34.687Z,16.35
2022-08-20T19:58:05.290Z,16.42
2022-08-20T20:00:42.595Z,16.46
2022-08-20T20:03:19.552Z,16.49
2022-08-20T20:05:51.656Z,16.56
2022-08-20T20:08:19.024Z,16.58
2022-08-20T20:10:53.025Z,16.57
2022-08-20T20:13:21.271Z,16.45
2022-08-20T20:15:51.969Z,16.36
2022-08-20T20:18:18.700Z,16.31
2022-08-20T20:20:57.286Z,16.24
2022-08-20T20:23:38.762Z,16.23
2022-08-20T20:26:17.866Z,16.14
2022-08-20T20:28:45.242Z,16.12
2022-08-20T20:31:17.652Z,16.14
2022-08-20T20:33:44.640Z,16.16
2022-08-20T20:36:16.406Z,16.14
2022-08-20T20:38:56.188Z,16.17
2022-08-20T20:41:29.073Z,16.19
2022-08-20T20:44:07.900Z,16.08
2022-08-20T20:46:36.231Z,15.98
2022-08-20T20:49:09.297Z,15.93
2022-08-20T20:51:42.569Z,15.88
2022-08-20T20:54:29.598Z,15.84
2022-08-20T20:57:04.486Z,15.81
2022-08-20T20:59:35.584Z,15.82
2022-08-20T21:02:03.381Z,15.81
2022-08-20T21:04:32.041Z,15.81
2022-08-20T21:07:06.471Z,15.79
2022-08-20T21:09:35.115Z,15.77
2022-08-20T21:12:01.919Z,15.77
2022-08-20T21:14:28.386Z,15.90
2022-08-20T21:16:58.193Z,15.94
2022-08-20T21:19:24.583Z,15.90
2022-08-20T21:21:51.004Z,15.82
2022-08-20T21:24:17.436Z,15.78
2022-08-20T21:26:44.948Z,15.73
2022-08-20T21:29:15.743Z,15.63
2022-08-20T21:31:44.664Z,15.61
2022-08-20T21:34:14.623Z,15.63
2022-08-20T21:36:41.694Z,15.63
2022-08-20T21:39:09.592Z,15.56
2022-08-20T21:41:36.800Z,15.60
2022-08-20T21:44:10.221Z,15.60
2022-08-20T21:46:36.715Z,15.57
2022-08-20T21:49:04.503Z,15.57
2022-08-20T21:51:32.537Z,15.57
2022-08-20T21:53:59.559Z,15.61
2022-08-20T21:56:25.984Z,15.59
2022-08-20T21:58:55.077Z,15.71
2022-08-20T22:01:22.059Z,15.66
2022-08-20T22:03:49.566Z,15.71
2022-08-20T22:06:19.467Z,15.77
2022-08-20T22:08:45.927Z,15.43
2022-08-20T22:11:14.036Z,15.17
2022-08-20T22:13:41.342Z,14.96
2022-08-20T22:16:09.855Z,14.87
2022-08-20T22:18:37.187Z,14.78
2022-08-20T22:21:07.950Z,14.69
2022-08-20T22:23:34.419Z,14.64
2022-08-20T22:26:00.816Z,14.58
2022-08-20T22:28:27.411Z,14.57
2022-08-20T22:30:53.968Z,14.54
2022-08-20T22:33:22.461Z,14.51
2022-08-20T22:35:53.078Z,14.42
2022-08-20T22:38:19.730Z,14.34
2022-08-20T22:40:46.130Z,14.32
2022-08-20T22:43:14.132Z,14.29
2022-08-20T22:45:43.423Z,14.28
2022-08-20T22:48:11.530Z,14.26
2022-08-20T22:50:38.242Z,14.20
2022-08-20T22:53:07.015Z,14.11
2022-08-20T22:55:33.906Z,14.07
2022-08-20T22:58:00.996Z,14.03
2022-08-20T23:00:27.855Z,14.05
2022-08-20T23:02:57.739Z,14.05
2022-08-20T23:05:27.508Z,14.11
2022-08-20T23:07:59.038Z,14.04
2022-08-20T23:10:27.335Z,13.89
2022-08-20T23:12:54.009Z,13.85
2022-08-20T23:15:21.366Z,13.79
2022-08-20T23:17:47.993Z,13.68
2022-08-20T23:20:17.002Z,13.60
2022-08-20T23:22:44.440Z,13.59
2022-08-20T23:25:12.550Z,13.61
2022-08-20T23:27:46.867Z,13.57
2022-08-20T23:30:16.552Z,13.44
2022-08-20T23:32:42.986Z,13.39
2022-08-20T23:35:10.403Z,13.42
2022-08-20T23:37:42.052Z,13.43
2022-08-20T23:40:10.138Z,13.49
2022-08-20T23:42:36.712Z,13.50
2022-08-20T23:45:04.986Z,13.48
2022-08-20T23:47:31.700Z,13.47
2022-08-20T23:49:58.092Z,13.31
2022-08-20T23:52:25.072Z,13.19
2022-08-20T23:54:51.483Z,13.00
2022-08-20T23:57:21.081Z,13.01
2022-08-20T23:59:48.115Z,12.93
